Time;durP1;ratioP1;P1;durP2;ratioP2;P2;SDS_P1;SDS_P2;PMS_P1;PMS_P2;Temp;Humidity;BMP_temperature;BMP_pressure;BME280_temperature;BME280_humidity;BME280_pressure;Samples;Min_cycle;Max_cycle;Signal;HPM_P1;HPM_P2
2021/05/03 00:02:23;;;;;;;9.82;5.72;;;;;;;4.96;80.14;100226.63;5084041;28;20088;-64
2021/05/03 00:04:49;;;;;;;11.40;6.55;;;;;;;4.98;80.02;100228.34;5083425;28;20488;-64
2021/05/03 00:07:14;;;;;;;10.27;6.43;;;;;;;5.00;80.11;100227.50;5083940;28;20485;-64
2021/05/03 00:09:40;;;;;;;10.32;5.70;;;;;;;5.05;80.05;100224.97;5084157;28;20044;-67
2021/05/03 00:12:06;;;;;;;10.18;6.75;;;;;;;5.03;80.01;100221.53;5083823;28;20028;-64
2021/05/03 00:14:31;;;;;;;9.70;6.53;;;;;;;5.00;80.07;100219.78;5082517;28;20021;-65
2021/05/03 00:16:56;;;;;;;5.32;4.00;;;;;;;4.99;80.42;100214.63;5083897;28;20084;-65
2021/05/03 00:19:22;;;;;;;10.93;5.88;;;;;;;5.01;80.41;100203.50;5083720;28;20468;-66
2021/05/03 00:21:47;;;;;;;10.45;6.60;;;;;;;5.01;80.48;100210.38;5083502;28;20012;-65
2021/05/03 00:24:12;;;;;;;11.10;6.80;;;;;;;5.03;80.52;100219.81;5083571;28;20035;-66
2021/05/03 00:26:38;;;;;;;12.27;7.53;;;;;;;5.04;81.01;100202.69;5083700;28;20024;-65
2021/05/03 00:29:03;;;;;;;10.88;6.90;;;;;;;5.10;80.86;100210.47;5083677;28;20032;-65
2021/05/03 00:31:29;;;;;;;8.95;6.45;;;;;;;5.10;81.11;100202.75;5083402;28;20017;-66
2021/05/03 00:33:54;;;;;;;7.65;5.10;;;;;;;5.09;80.81;100188.16;5083968;28;20495;-66
2021/05/03 00:36:19;;;;;;;10.10;5.90;;;;;;;5.12;81.40;100197.59;5083824;28;20016;-66
2021/05/03 00:38:45;;;;;;;8.15;5.57;;;;;;;5.10;81.08;100184.72;5083609;28;20016;-66
2021/05/03 00:41:10;;;;;;;13.18;7.72;;;;;;;5.13;81.28;100177.03;5083422;28;20499;-65
2021/05/03 00:43:36;;;;;;;10.18;6.68;;;;;;;5.12;81.47;100184.75;5083081;28;20571;-65
2021/05/03 00:46:01;;;;;;;7.55;4.90;;;;;;;5.14;81.30;100176.22;5083315;28;20103;-64
2021/05/03 00:48:27;;;;;;;7.75;5.13;;;;;;;5.10;81.38;100174.44;5083281;28;20087;-64
2021/05/03 00:50:52;;;;;;;9.95;5.60;;;;;;;5.12;81.52;100171.88;5082394;28;20025;-63
2021/05/03 00:53:18;;;;;;;9.48;5.90;;;;;;;5.12;81.47;100175.31;5083268;28;20084;-64
2021/05/03 00:55:44;;;;;;;8.73;6.07;;;;;;;5.10;81.64;100171.03;5083614;28;20027;-64
2021/05/03 00:58:10;;;;;;;6.45;4.60;;;;;;;5.16;81.69;100173.66;5083182;28;20081;-64
2021/05/03 01:00:36;;;;;;;11.10;7.28;;;;;;;5.21;81.37;100187.41;5083587;28;20039;-64
2021/05/03 01:03:02;;;;;;;8.75;5.65;;;;;;;5.21;81.40;100165.13;5083443;28;20052;-65
2021/05/03 01:05:29;;;;;;;7.68;5.95;;;;;;;5.29;81.19;100172.03;5083423;28;20056;-64
2021/05/03 01:07:59;;;;;;;10.48;5.82;;;;;;;5.31;81.10;100180.66;5083218;28;20038;-63
2021/05/03 01:10:25;;;;;;;10.13;6.32;;;;;;;5.34;81.27;100170.38;5082451;28;20047;-65
2021/05/03 01:12:52;;;;;;;9.25;6.25;;;;;;;5.37;81.44;100172.13;5083504;28;20041;-66
2021/05/03 01:15:23;;;;;;;10.00;6.05;;;;;;;5.35;81.43;100168.69;5084253;28;20020;-66
2021/05/03 01:18:06;;;;;;;8.30;5.97;;;;;;;5.44;81.13;100182.50;5087743;28;20035;-66
2021/05/03 01:20:37;;;;;;;8.43;5.60;;;;;;;5.44;81.07;100182.50;5087682;28;20025;-66
2021/05/03 01:23:05;;;;;;;7.93;6.10;;;;;;;5.43;81.10;100180.75;5087251;28;20465;-66
2021/05/03 01:25:34;;;;;;;6.68;5.13;;;;;;;5.50;81.00;100180.81;5087808;28;20054;-66
2021/05/03 01:28:01;;;;;;;7.07;5.35;;;;;;;5.50;81.32;100186.81;5087349;28;20031;-66
2021/05/03 01:30:39;;;;;;;9.57;5.72;;;;;;;5.53;81.04;100194.59;5087573;28;20112;-65
2021/05/03 01:33:07;;;;;;;8.02;5.43;;;;;;;5.57;81.25;100190.31;5087296;28;20020;-65
2021/05/03 01:35:33;;;;;;;8.73;5.72;;;;;;;5.57;81.28;100198.91;5087314;28;20028;-64
2021/05/03 01:38:00;;;;;;;6.40;5.13;;;;;;;5.60;81.26;100192.06;5086794;28;20467;-62
2021/05/03 01:40:28;;;;;;;10.10;6.75;;;;;;;5.62;81.53;100196.38;5086894;28;20024;-62
2021/05/03 01:42:55;;;;;;;12.05;5.78;;;;;;;5.67;81.13;100189.53;5086776;28;20048;-62
2021/05/03 01:45:25;;;;;;;7.97;6.18;;;;;;;5.68;81.05;100186.13;5087186;28;20059;-62
2021/05/03 01:47:53;;;;;;;9.60;5.85;;;;;;;5.68;80.98;100188.72;5086856;28;20021;-63
2021/05/03 01:50:20;;;;;;;9.10;6.07;;;;;;;5.66;80.79;100177.53;5086803;28;20044;-63
2021/05/03 01:52:46;;;;;;;7.38;5.82;;;;;;;5.57;81.12;100172.31;5086070;28;20017;-62
2021/05/03 01:55:13;;;;;;;9.10;6.70;;;;;;;5.66;81.26;100186.94;5086549;28;20039;-63
2021/05/03 01:57:38;;;;;;;11.77;7.15;;;;;;;5.69;81.13;100182.69;5085934;28;20124;-62
2021/05/03 02:00:07;;;;;;;10.93;6.25;;;;;;;5.68;81.02;100180.97;5086368;28;20039;-63
2021/05/03 02:02:32;;;;;;;8.63;6.18;;;;;;;5.68;81.26;100180.13;5086055;28;20047;-63
2021/05/03 02:04:57;;;;;;;10.88;6.30;;;;;;;5.68;81.39;100175.84;5086420;28;20123;-63
2021/05/03 02:07:23;;;;;;;6.90;4.68;;;;;;;5.70;81.52;100183.56;5086085;28;20385;-64
2021/05/03 02:09:48;;;;;;;8.88;6.20;;;;;;;5.73;81.21;100181.03;5086246;28;20060;-64
2021/05/03 02:12:14;;;;;;;9.43;6.63;;;;;;;5.75;81.21;100181.03;5086223;28;20036;-63
2021/05/03 02:14:40;;;;;;;10.15;6.35;;;;;;;5.76;80.96;100172.44;5086307;28;20099;-64
2021/05/03 02:17:06;;;;;;;14.98;6.95;;;;;;;5.74;81.06;100174.13;5086121;28;20455;-63
2021/05/03 02:19:31;;;;;;;7.50;5.78;;;;;;;5.68;81.39;100169.81;5086029;28;20035;-65
2021/05/03 02:21:57;;;;;;;8.88;5.65;;;;;;;5.74;81.38;100174.13;5085647;28;20097;-63
2021/05/03 02:24:22;;;;;;;7.63;5.40;;;;;;;5.73;81.40;100175.88;5085893;28;20028;-64
2021/05/03 02:26:48;;;;;;;9.30;5.72;;;;;;;5.74;81.44;100180.16;5085173;28;20099;-65
2021/05/03 02:29:13;;;;;;;11.32;6.30;;;;;;;5.74;81.53;100179.28;5085820;28;20128;-66
2021/05/03 02:31:39;;;;;;;10.18;6.53;;;;;;;5.71;81.56;100174.97;5085754;28;20081;-64
2021/05/03 02:34:04;;;;;;;9.63;6.43;;;;;;;5.70;81.67;100168.97;5084411;28;20016;-64
2021/05/03 02:36:30;;;;;;;9.27;6.60;;;;;;;5.69;81.63;100167.25;5085881;28;20027;-64
2021/05/03 02:38:55;;;;;;;9.10;6.20;;;;;;;5.66;81.92;100172.38;5085642;28;20021;-64
2021/05/03 02:41:20;;;;;;;9.68;6.43;;;;;;;5.70;81.72;100165.53;5085583;28;20108;-64
2021/05/03 02:43:46;;;;;;;8.55;5.85;;;;;;;5.71;81.73;100162.09;5085192;28;20084;-64
2021/05/03 02:46:12;;;;;;;8.73;6.47;;;;;;;5.73;81.61;100167.28;5085360;28;20031;-64
2021/05/03 02:48:37;;;;;;;10.77;6.07;;;;;;;5.71;81.78;100159.53;5084020;28;20026;-65
2021/05/03 02:51:03;;;;;;;9.77;6.57;;;;;;;5.76;81.68;100157.84;5085849;28;20059;-65
2021/05/03 02:53:29;;;;;;;10.93;6.00;;;;;;;5.79;81.79;100160.47;5085425;28;20020;-65
2021/05/03 02:55:54;;;;;;;9.43;6.03;;;;;;;5.80;81.60;100154.44;5085806;28;20032;-66
2021/05/03 02:58:20;;;;;;;8.75;6.72;;;;;;;5.84;81.74;100150.19;5085615;28;20064;-64
2021/05/03 03:00:45;;;;;;;7.57;5.53;;;;;;;5.87;81.73;100149.31;5085853;28;20032;-63
2021/05/03 03:03:11;;;;;;;10.02;6.32;;;;;;;5.88;81.72;100151.06;5083990;28;20032;-65
2021/05/03 03:05:36;;;;;;;8.18;5.85;;;;;;;5.89;81.61;100152.78;5085529;28;20036;-63
2021/05/03 03:08:02;;;;;;;9.40;6.07;;;;;;;5.90;81.68;100144.19;5085303;28;20021;-64
2021/05/03 03:10:29;;;;;;;10.95;5.72;;;;;;;5.88;81.52;100146.75;5085363;28;20025;-63
2021/05/03 03:12:55;;;;;;;9.68;6.38;;;;;;;5.91;81.63;100140.78;5083857;28;20111;-64
2021/05/03 03:15:23;;;;;;;12.60;7.32;;;;;;;5.91;81.73;100148.53;5085531;28;20020;-65
2021/05/03 03:17:50;;;;;;;10.45;7.40;;;;;;;5.94;81.83;100144.22;5085279;28;20055;-64
2021/05/03 03:20:17;;;;;;;12.13;7.63;;;;;;;5.97;81.72;100152.84;5085312;28;20016;-64
2021/05/03 03:22:43;;;;;;;9.73;7.30;;;;;;;5.99;81.71;100145.97;5084848;28;20064;-64
2021/05/03 03:25:09;;;;;;;12.68;7.03;;;;;;;5.99;81.82;100139.09;5085187;28;20017;-64
2021/05/03 03:27:36;;;;;;;9.82;6.93;;;;;;;6.01;81.84;100145.13;5085307;28;20492;-64
2021/05/03 03:30:06;;;;;;;10.40;6.78;;;;;;;6.05;81.67;100146.06;5085170;28;20024;-64
2021/05/03 03:32:31;;;;;;;11.07;7.20;;;;;;;6.07;81.71;100141.78;5084712;28;20025;-64
2021/05/03 03:34:57;;;;;;;10.20;7.45;;;;;;;5.98;81.31;100150.25;5085061;28;20421;-65
2021/05/03 03:37:22;;;;;;;11.82;7.32;;;;;;;5.90;81.17;100149.34;5084716;28;20086;-65
2021/05/03 03:39:47;;;;;;;10.65;7.80;;;;;;;5.83;81.10;100146.72;5084636;28;20024;-65
2021/05/03 03:42:13;;;;;;;12.45;7.35;;;;;;;5.81;81.03;100155.31;5084644;28;20027;-65
2021/05/03 03:44:38;;;;;;;10.27;7.10;;;;;;;5.76;80.57;100149.25;5084742;28;20024;-64
2021/05/03 03:47:04;;;;;;;15.00;6.60;;;;;;;5.70;80.62;100142.38;5084863;28;20017;-65
2021/05/03 03:49:29;;;;;;;10.95;7.53;;;;;;;5.70;80.72;100145.78;5084600;28;20029;-64
2021/05/03 03:51:56;;;;;;;11.35;7.03;;;;;;;5.68;80.48;100136.31;5084436;28;20025;-65
2021/05/03 03:54:21;;;;;;;9.80;6.70;;;;;;;5.74;80.44;100145.78;5084105;28;20040;-64
2021/05/03 03:56:47;;;;;;;14.13;7.68;;;;;;;5.74;80.67;100148.38;5084061;28;20045;-67
2021/05/03 03:59:14;;;;;;;11.45;7.65;;;;;;;5.76;80.45;100142.41;5084275;28;20076;-66
2021/05/03 04:01:41;;;;;;;11.55;7.15;;;;;;;5.84;80.85;100147.59;5082652;28;20030;-66
2021/05/03 04:04:14;;;;;;;10.02;6.80;;;;;;;5.89;81.06;100143.34;5082631;28;20043;-66
2021/05/03 04:06:52;;;;;;;11.30;7.63;;;;;;;6.03;81.34;100151.16;5084139;28;20034;-66
2021/05/03 04:09:28;;;;;;;13.23;7.53;;;;;;;6.12;81.53;100152.13;5084004;28;20034;-66
2021/05/03 04:25:37;;;;;;;10.73;6.13;;;;;;;6.31;79.01;100156.50;5084025;28;20016;-65
2021/05/03 04:28:04;;;;;;;8.98;6.18;;;;;;;6.40;79.79;100154.81;5083852;28;20025;-68
2021/05/03 04:30:29;;;;;;;6.57;5.07;;;;;;;6.45;79.49;100159.13;5083901;28;20088;-67
2021/05/03 04:32:56;;;;;;;8.60;5.78;;;;;;;6.53;79.40;100160.91;5083509;28;20055;-65
2021/05/03 04:35:21;;;;;;;7.90;5.10;;;;;;;6.50;79.13;100148.84;5083695;28;20050;-67
2021/05/03 04:37:47;;;;;;;8.00;5.10;;;;;;;6.57;78.90;100160.06;5083227;28;20355;-66
2021/05/03 04:40:12;;;;;;;8.52;4.88;;;;;;;6.60;79.14;100157.47;5083066;28;20103;-66
2021/05/03 04:42:38;;;;;;;7.20;4.25;;;;;;;6.64;79.02;100158.38;5082994;28;20025;-66
2021/05/03 04:45:05;;;;;;;8.32;4.60;;;;;;;6.66;78.94;100159.25;5083285;28;20020;-66
2021/05/03 04:47:31;;;;;;;9.73;6.10;;;;;;;6.69;79.08;100164.41;5083227;28;20074;-67
2021/05/03 04:49:59;;;;;;;7.03;4.97;;;;;;;6.77;79.23;100162.69;5083012;28;20495;-67
2021/05/03 04:52:25;;;;;;;6.35;4.30;;;;;;;6.80;79.34;100165.31;5083112;28;20060;-67
2021/05/03 04:54:51;;;;;;;11.15;5.68;;;;;;;6.93;79.70;100170.50;5083189;28;20027;-66
2021/05/03 04:57:16;;;;;;;7.25;3.72;;;;;;;7.00;79.31;100161.91;5083168;28;20044;-65
2021/05/03 04:59:42;;;;;;;5.18;4.20;;;;;;;7.08;79.44;100164.50;5083641;28;20012;-66
2021/05/03 05:02:07;;;;;;;12.05;4.22;;;;;;;7.14;79.13;100167.09;5083352;28;20021;-66
2021/05/03 05:04:33;;;;;;;6.38;4.15;;;;;;;7.31;79.89;100158.53;5083344;28;20489;-66
2021/05/03 05:07:00;;;;;;;6.88;3.85;;;;;;;7.38;79.67;100152.50;5083371;28;20032;-65
2021/05/03 05:09:25;;;;;;;5.40;3.83;;;;;;;7.55;79.30;100151.66;5083308;28;20021;-68
2021/05/03 05:11:51;;;;;;;4.32;3.33;;;;;;;7.66;79.12;100146.47;5083140;28;20024;-65
2021/05/03 05:14:17;;;;;;;9.93;3.55;;;;;;;7.77;78.27;100155.09;5083317;28;20028;-65
2021/05/03 05:16:43;;;;;;;8.18;3.17;;;;;;;7.97;78.71;100145.59;5083541;28;20028;-65
2021/05/03 05:19:09;;;;;;;10.60;3.50;;;;;;;8.20;78.56;100148.09;5083294;28;20020;-65
2021/05/03 05:21:38;;;;;;;6.43;3.40;;;;;;;8.57;78.56;100156.63;5082887;28;20072;-63
2021/05/03 05:24:04;;;;;;;5.43;3.35;;;;;;;8.99;77.34;100146.09;5082984;28;20493;-65
2021/05/03 05:26:29;;;;;;;5.95;3.03;;;;;;;9.37;78.34;100144.09;5083204;28;20149;-64
2021/05/03 05:28:55;;;;;;;8.57;2.95;;;;;;;9.63;77.68;100136.09;5083170;28;20469;-66
2021/05/03 05:31:21;;;;;;;8.15;3.92;;;;;;;9.80;76.39;100140.28;5083084;28;20025;-64
2021/05/03 05:33:47;;;;;;;3.78;2.88;;;;;;;9.99;74.95;100147.88;5082767;28;20351;-64
2021/05/03 05:36:12;;;;;;;5.97;2.72;;;;;;;10.06;73.96;100151.25;5083073;28;20025;-66
2021/05/03 05:38:40;;;;;;;7.55;2.60;;;;;;;10.22;73.80;100146.78;5082861;28;20123;-64
2021/05/03 05:41:05;;;;;;;5.18;2.63;;;;;;;10.16;74.53;100143.38;5083089;28;20032;-65
2021/05/03 05:43:31;;;;;;;5.18;3.10;;;;;;;10.22;72.23;100144.19;5082893;28;20139;-65
2021/05/03 05:45:56;;;;;;;6.95;2.85;;;;;;;10.40;73.78;100138.75;5082803;28;20036;-64
2021/05/03 05:48:22;;;;;;;4.22;2.97;;;;;;;10.59;73.01;100143.75;5081024;28;20028;-64
2021/05/03 05:50:48;;;;;;;4.90;2.63;;;;;;;10.79;71.01;100140.03;5082712;28;20085;-65
2021/05/03 05:53:13;;;;;;;5.75;2.60;;;;;;;10.81;68.65;100132.22;5082619;28;20084;-64
2021/05/03 05:55:40;;;;;;;4.10;2.58;;;;;;;10.85;68.69;100137.38;5083040;28;20052;-64
2021/05/03 05:58:05;;;;;;;4.45;2.55;;;;;;;10.85;67.26;100132.16;5082738;28;20044;-64
2021/05/03 06:00:31;;;;;;;3.55;2.47;;;;;;;10.93;67.89;100139.84;5083102;28;20174;-64
2021/05/03 06:02:56;;;;;;;4.50;2.40;;;;;;;11.17;68.49;100139.53;5083986;28;20051;-64
2021/05/03 06:05:23;;;;;;;3.95;2.55;;;;;;;11.30;68.90;100138.44;5086815;28;20081;-66
2021/05/03 06:07:48;;;;;;;3.38;2.70;;;;;;;11.29;65.92;100128.94;5086278;28;20096;-65
2021/05/03 06:10:13;;;;;;;4.70;2.90;;;;;;;11.24;66.09;100133.34;5086640;28;20328;-65
2021/05/03 06:12:39;;;;;;;4.57;2.40;;;;;;;11.34;66.85;100132.31;5086408;28;20028;-65
2021/05/03 06:15:05;;;;;;;7.55;2.45;;;;;;;11.53;67.04;100134.63;5086420;28;20425;-66
2021/05/03 06:17:30;;;;;;;4.30;2.50;;;;;;;11.60;65.41;100132.75;5086545;28;20025;-65
2021/05/03 06:19:56;;;;;;;3.20;2.35;;;;;;;11.57;65.70;100136.28;5086334;28;20067;-65
2021/05/03 06:22:21;;;;;;;3.42;2.55;;;;;;;11.62;65.02;100131.00;5085906;28;20037;-65
2021/05/03 06:24:46;;;;;;;3.58;2.10;;;;;;;11.75;64.84;100142.03;5086302;28;20028;-66
2021/05/03 06:27:12;;;;;;;3.05;2.38;;;;;;;11.62;61.94;100146.59;5086340;28;20033;-65
2021/05/03 06:29:38;;;;;;;8.00;2.65;;;;;;;11.25;60.94;100135.06;5086116;28;20028;-67
2021/05/03 06:32:04;;;;;;;3.67;2.53;;;;;;;11.04;62.04;100144.88;5086187;28;20017;-65
2021/05/03 06:34:31;;;;;;;3.00;2.55;;;;;;;10.92;62.69;100140.75;5086059;28;20098;-65
2021/05/03 06:36:57;;;;;;;3.67;3.00;;;;;;;10.83;62.92;100144.31;5086114;28;20050;-65
2021/05/03 06:39:23;;;;;;;4.03;2.72;;;;;;;10.72;62.99;100143.63;5085779;28;20028;-64
2021/05/03 06:41:49;;;;;;;3.30;2.50;;;;;;;10.69;63.32;100138.47;5085764;28;20381;-63
2021/05/03 06:44:15;;;;;;;3.17;2.60;;;;;;;10.62;63.48;100132.50;5085920;28;20027;-64
2021/05/03 06:46:41;;;;;;;2.95;2.65;;;;;;;10.63;63.93;100140.25;5085797;28;20404;-66
2021/05/03 06:49:06;;;;;;;3.22;2.47;;;;;;;10.72;64.66;100139.25;5085699;28;20096;-64
2021/05/03 06:51:32;;;;;;;4.82;2.63;;;;;;;10.59;63.72;100135.13;5085730;28;20058;-65
2021/05/03 06:53:57;;;;;;;3.50;2.50;;;;;;;10.55;65.00;100134.28;5085368;28;20043;-64
2021/05/03 06:56:24;;;;;;;3.97;2.40;;;;;;;10.56;65.37;100135.16;5085337;28;20032;-63
2021/05/03 06:58:49;;;;;;;4.10;3.00;;;;;;;10.54;65.30;100127.41;5085721;28;20124;-65
2021/05/03 07:01:15;;;;;;;4.03;2.60;;;;;;;10.45;65.88;100125.72;5085935;28;20036;-65
2021/05/03 07:03:42;;;;;;;3.97;2.40;;;;;;;10.32;65.89;100135.41;5085303;28;20017;-66
2021/05/03 07:06:08;;;;;;;4.22;2.58;;;;;;;10.37;66.10;100128.44;5085515;28;20040;-65
2021/05/03 07:08:33;;;;;;;5.47;2.72;;;;;;;10.31;64.89;100125.91;5085103;28;20036;-64
2021/05/03 07:11:01;;;;;;;3.80;2.53;;;;;;;10.41;65.86;100129.25;5085546;28;20035;-65
2021/05/03 07:13:27;;;;;;;3.38;2.55;;;;;;;10.64;65.83;100126.38;5084526;28;20027;-65
2021/05/03 07:15:52;;;;;;;6.65;2.72;;;;;;;10.93;66.25;100116.47;5085305;28;20017;-65
2021/05/03 07:18:17;;;;;;;7.75;2.40;;;;;;;11.25;66.13;100116.88;5085199;28;20415;-67
2021/05/03 07:20:43;;;;;;;3.58;2.67;;;;;;;11.47;65.56;100116.53;5084992;28;20027;-65
2021/05/03 07:23:09;;;;;;;4.07;2.55;;;;;;;11.72;64.86;100116.09;5084716;28;20553;-63
2021/05/03 07:25:35;;;;;;;5.95;3.25;;;;;;;12.25;64.55;100107.34;5084986;28;20028;-65
2021/05/03 07:28:04;;;;;;;3.83;2.63;;;;;;;12.97;65.43;100109.25;5085111;28;20501;-64
2021/05/03 07:30:29;;;;;;;4.35;2.20;;;;;;;13.68;61.50;100110.19;5085100;28;20016;-64
2021/05/03 07:32:54;;;;;;;4.30;2.75;;;;;;;13.88;61.79;100113.13;5084801;28;20027;-64
2021/05/03 07:35:20;;;;;;;4.05;2.70;;;;;;;13.94;61.37;100111.25;5084792;28;20028;-64
2021/05/03 07:37:47;;;;;;;3.97;2.42;;;;;;;13.67;57.98;100109.34;5084374;28;20096;-65
2021/05/03 07:40:12;;;;;;;3.70;2.45;;;;;;;13.45;58.96;100115.06;5084703;28;20028;-64
2021/05/03 07:42:38;;;;;;;5.20;2.83;;;;;;;13.26;60.47;100114.66;5084351;28;20159;-63
2021/05/03 07:45:04;;;;;;;4.90;2.40;;;;;;;13.15;61.09;100120.13;5084664;28;20108;-64
2021/05/03 07:47:30;;;;;;;6.50;3.30;;;;;;;13.01;61.13;100123.06;5084422;28;20487;-64
2021/05/03 07:49:56;;;;;;;4.15;2.53;;;;;;;12.86;61.25;100114.72;5084596;28;20244;-65
2021/05/03 07:52:21;;;;;;;5.43;3.15;;;;;;;12.66;60.88;100114.28;5084080;28;20508;-63
2021/05/03 07:54:47;;;;;;;4.65;3.08;;;;;;;12.45;61.23;100119.94;5084348;28;20032;-65
2021/05/03 07:57:12;;;;;;;6.20;3.45;;;;;;;12.13;60.50;100116.22;5084004;28;20109;-65
2021/05/03 07:59:37;;;;;;;3.95;3.15;;;;;;;11.80;60.58;100116.81;5084420;28;20092;-65
2021/05/03 08:02:03;;;;;;;5.15;2.85;;;;;;;11.56;61.59;100112.91;5084150;28;20021;-63
2021/05/03 08:04:28;;;;;;;4.25;2.83;;;;;;;11.22;61.73;100114.31;5084055;28;20025;-64
2021/05/03 08:06:57;;;;;;;6.43;3.05;;;;;;;11.02;61.54;100118.09;5084223;28;20020;-64
2021/05/03 08:09:25;;;;;;;4.82;2.65;;;;;;;10.90;61.89;100122.59;5084041;28;20055;-64
2021/05/03 08:11:51;;;;;;;4.07;3.00;;;;;;;10.84;61.83;100117.47;5084013;28;20028;-63
2021/05/03 08:14:19;;;;;;;6.47;3.67;;;;;;;10.85;62.04;100119.19;5084085;28;20017;-65
2021/05/03 08:16:48;;;;;;;4.97;3.15;;;;;;;10.75;63.01;100128.00;5083874;28;20024;-66
2021/05/03 08:19:13;;;;;;;6.22;3.58;;;;;;;10.65;63.40;100114.28;5084005;28;20021;-65
2021/05/03 08:21:38;;;;;;;8.30;3.63;;;;;;;10.55;63.97;100113.53;5083848;28;20027;-63
2021/05/03 08:24:04;;;;;;;6.35;3.80;;;;;;;10.49;64.16;100114.47;5083666;28;20031;-65
2021/05/03 08:26:29;;;;;;;5.15;3.58;;;;;;;10.33;64.21;100112.91;5083055;28;20017;-65
2021/05/03 08:28:55;;;;;;;8.32;3.80;;;;;;;10.21;64.56;100113.94;5083858;28;20035;-63
2021/05/03 08:31:20;;;;;;;10.13;3.92;;;;;;;10.16;65.44;100111.38;5083656;28;20109;-65
2021/05/03 08:33:46;;;;;;;5.80;3.78;;;;;;;10.00;64.95;100102.94;5083571;28;20025;-66
2021/05/03 08:36:12;;;;;;;7.80;4.38;;;;;;;9.96;64.71;100106.41;5083690;28;20039;-66
2021/05/03 08:38:37;;;;;;;14.48;3.83;;;;;;;9.96;64.61;100109.00;5083535;28;20102;-66
2021/05/03 08:41:03;;;;;;;6.07;3.42;;;;;;;10.01;64.48;100104.63;5083832;28;20085;-64
2021/05/03 08:43:31;;;;;;;4.68;3.10;;;;;;;10.05;64.35;100106.31;5083423;28;20028;-66
2021/05/03 08:45:57;;;;;;;6.32;3.13;;;;;;;10.09;63.40;100102.81;5083871;28;20052;-65
2021/05/03 08:48:40;;;;;;;5.38;3.13;;;;;;;10.19;63.05;100097.53;5083790;28;20035;-66
2021/05/03 08:53:56;;;;;;;7.03;3.13;;;;;;;10.26;62.71;100101.75;5083116;28;20035;-64
2021/05/03 08:56:21;;;;;;;5.80;3.70;;;;;;;10.29;63.22;100105.16;5083115;28;20017;-63
2021/05/03 08:58:47;;;;;;;5.05;3.00;;;;;;;10.29;62.44;100096.50;5083165;28;20055;-64
2021/05/03 09:01:12;;;;;;;5.70;3.22;;;;;;;10.31;62.69;100097.38;5083240;28;20048;-65
2021/05/03 09:03:40;;;;;;;3.80;3.25;;;;;;;10.43;63.33;100103.28;5082983;28;20092;-65
2021/05/03 09:06:11;;;;;;;4.93;3.50;;;;;;;10.65;63.69;100096.09;5083110;28;20020;-65
2021/05/03 09:08:36;;;;;;;4.53;2.97;;;;;;;10.84;60.69;100099.31;5082899;28;20019;-64
2021/05/03 09:11:02;;;;;;;3.92;3.20;;;;;;;10.95;60.37;100098.28;5082841;28;20025;-64
2021/05/03 09:13:37;;;;;;;4.00;3.08;;;;;;;11.02;60.27;100100.75;5082850;28;20032;-64
2021/05/03 09:16:23;;;;;;;4.65;3.13;;;;;;;11.08;59.45;100096.34;5082841;28;20069;-65
2021/05/03 09:18:50;;;;;;;4.18;3.08;;;;;;;11.10;60.09;100098.03;5082868;28;20040;-65
2021/05/03 09:21:19;;;;;;;4.55;3.40;;;;;;;11.14;58.87;100091.91;5082871;28;20028;-65
2021/05/03 09:24:04;;;;;;;3.42;3.00;;;;;;;11.02;59.15;100095.56;5082560;28;20083;-64
2021/05/03 09:26:41;;;;;;;4.70;2.97;;;;;;;10.89;57.87;100079.28;5082713;28;20362;-65
2021/05/03 09:29:39;;;;;;;5.00;2.88;;;;;;;10.78;58.23;100096.78;5082778;28;20028;-65
2021/05/03 09:32:08;;;;;;;5.97;2.72;;;;;;;10.76;57.67;100093.34;5082756;28;20042;-63
2021/05/03 09:34:44;;;;;;;5.03;3.30;;;;;;;10.79;58.74;100093.31;5081628;28;20013;-64
2021/05/03 09:37:16;;;;;;;4.30;2.70;;;;;;;10.88;57.16;100087.09;5084630;28;20051;-65
2021/05/03 09:39:43;;;;;;;5.43;2.90;;;;;;;10.97;58.78;100078.34;5086536;28;20046;-63
2021/05/03 09:42:09;;;;;;;4.40;2.90;;;;;;;11.22;58.36;100090.94;5086467;28;20093;-63
2021/05/03 09:44:34;;;;;;;4.75;2.92;;;;;;;11.55;56.76;100077.41;5086784;28;20051;-65
2021/05/03 09:46:59;;;;;;;6.32;3.20;;;;;;;11.63;57.17;100083.28;5086608;28;20107;-65
2021/05/03 09:49:24;;;;;;;4.30;2.75;;;;;;;11.54;56.17;100076.53;5086596;28;20028;-65
2021/05/03 09:51:59;;;;;;;5.35;3.00;;;;;;;11.39;55.50;100072.44;5086442;28;20086;-65
2021/05/03 09:54:30;;;;;;;4.38;3.20;;;;;;;11.46;56.73;100074.06;5086425;28;20021;-65
2021/05/03 09:57:07;;;;;;;4.45;3.25;;;;;;;12.15;56.26;100070.22;5086155;28;20052;-65
2021/05/03 09:59:36;;;;;;;6.22;3.42;;;;;;;12.80;54.75;100062.75;5086474;28;20057;-67
2021/05/03 10:02:03;;;;;;;4.13;2.95;;;;;;;13.55;52.72;100058.34;5086098;28;20464;-66
2021/05/03 10:04:29;;;;;;;5.25;3.20;;;;;;;13.62;52.52;100065.13;5086344;28;20012;-67
2021/05/03 10:06:55;;;;;;;3.72;2.85;;;;;;;13.33;51.86;100058.88;5086292;28;20081;-67
2021/05/03 10:09:21;;;;;;;5.63;2.72;;;;;;;13.04;51.19;100065.66;5086059;28;20021;-68
2021/05/03 10:11:47;;;;;;;3.42;2.40;;;;;;;12.74;51.40;100058.56;5084762;28;20024;-67
2021/05/03 10:14:13;;;;;;;3.58;2.53;;;;;;;12.50;50.60;100071.22;5086088;28;20021;-67
2021/05/03 10:16:38;;;;;;;4.50;2.97;;;;;;;12.25;50.53;100066.53;5086003;28;20024;-67
2021/05/03 10:19:06;;;;;;;6.50;3.10;;;;;;;11.97;50.44;100061.00;5086011;28;20032;-67
2021/05/03 10:21:31;;;;;;;5.70;2.55;;;;;;;11.58;52.87;100067.78;5086000;28;20031;-66
2021/05/03 10:23:57;;;;;;;3.72;2.75;;;;;;;11.44;52.82;100075.84;5085656;28;20411;-67
2021/05/03 10:26:26;;;;;;;5.53;2.65;;;;;;;11.17;53.09;100071.97;5085990;28;20049;-68
2021/05/03 10:28:55;;;;;;;5.65;2.45;;;;;;;10.87;53.49;100070.69;5085999;28;20051;-68
2021/05/03 10:31:22;;;;;;;7.07;2.85;;;;;;;10.77;55.77;100074.28;5086001;28;20022;-66
2021/05/03 10:33:47;;;;;;;5.78;1.83;;;;;;;11.04;56.24;100072.16;5085769;28;20031;-68
2021/05/03 10:36:32;;;;;;;5.50;2.38;;;;;;;11.47;55.57;100065.38;5085891;28;20032;-67
2021/05/03 10:38:58;;;;;;;4.70;2.25;;;;;;;11.74;55.29;100072.72;5085222;28;20021;-67
2021/05/03 10:41:28;;;;;;;3.70;2.28;;;;;;;11.80;55.44;100070.00;5085462;28;20067;-67
2021/05/03 10:44:15;;;;;;;4.78;2.50;;;;;;;11.68;55.40;100072.84;5085543;28;20071;-67
2021/05/03 10:51:38;;;;;;;6.00;2.85;;;;;;;11.61;53.20;100066.88;5085532;28;20012;-68
2021/05/03 10:55:04;;;;;;;10.82;2.78;;;;;;;11.61;54.18;100061.69;5085287;28;20059;-68
2021/05/03 10:57:16;;;;;;;9.90;3.33;;;;;;;11.67;53.20;100068.50;5081738;28;20048;-68
2021/05/03 10:59:43;;;;;;;8.15;3.35;;;;;;;11.63;51.14;100065.97;5085368;28;20044;-67
2021/05/03 11:02:11;;;;;;;4.82;3.45;;;;;;;11.61;53.20;100057.31;5085061;28;20025;-67
2021/05/03 11:04:39;;;;;;;8.85;4.35;;;;;;;11.51;53.40;100053.19;5085210;28;20024;-67
2021/05/03 11:07:09;;;;;;;8.50;4.88;;;;;;;11.59;53.88;100053.91;5085207;28;20028;-68
2021/05/03 11:09:39;;;;;;;9.77;4.80;;;;;;;11.45;52.90;100061.97;5085158;28;20028;-67
2021/05/03 11:12:25;;;;;;;10.50;3.70;;;;;;;11.23;51.78;100051.91;5084729;28;20047;-66
2021/05/03 11:15:11;;;;;;;9.43;3.63;;;;;;;11.06;51.46;100065.19;5085174;28;20095;-67
2021/05/03 11:17:37;;;;;;;10.48;3.65;;;;;;;11.09;52.83;100065.16;5085026;28;20050;-67
2021/05/03 11:20:10;;;;;;;9.25;3.67;;;;;;;11.26;53.26;100057.06;5085046;28;20032;-68
2021/05/03 11:22:46;;;;;;;7.82;3.47;;;;;;;11.35;51.84;100057.81;5084586;28;20048;-66
2021/05/03 11:25:20;;;;;;;5.93;4.00;;;;;;;11.31;50.12;100051.78;5084913;28;20031;-67
2021/05/03 11:30:19;;;;;;;10.55;4.50;;;;;;;11.40;51.24;100054.25;5083723;28;20044;-68
2021/05/03 11:32:47;;;;;;;4.43;2.53;;;;;;;11.33;49.43;100057.81;5083179;28;20032;-68
2021/05/03 11:46:25;;;;;;;6.82;2.50;;;;;;;11.01;47.18;100052.28;5084644;28;20028;-67
2021/05/03 11:48:53;;;;;;;9.63;2.90;;;;;;;11.08;47.97;100044.38;5084456;28;20084;-67
2021/05/03 11:51:18;;;;;;;9.32;2.53;;;;;;;11.22;48.22;100051.94;5084500;28;20033;-67
2021/05/03 11:53:45;;;;;;;6.88;1.98;;;;;;;11.33;48.44;100050.03;5084059;28;20027;-67
2021/05/03 11:56:32;;;;;;;13.40;2.33;;;;;;;11.41;47.58;100044.69;5084208;28;20028;-65
2021/05/03 11:58:59;;;;;;;9.32;2.92;;;;;;;11.45;47.26;100041.19;5084354;28;20051;-67
2021/05/03 12:01:29;;;;;;;6.20;3.33;;;;;;;11.50;47.74;100044.53;5084263;28;20028;-67
2021/05/03 12:03:58;;;;;;;5.40;2.05;;;;;;;11.60;47.77;100040.03;5084059;28;20024;-66